createdAt,value
2023-02-11T00:01:28.922Z,33.60
2023-02-11T00:06:24.289Z,31.17
2023-02-11T00:08:51.704Z,32.30
2023-02-11T00:11:20.705Z,28.92
2023-02-11T00:13:48.397Z,27.77
2023-02-11T00:16:18.235Z,24.63
2023-02-11T00:18:45.702Z,21.42
2023-02-11T00:21:14.737Z,21.55
2023-02-11T00:23:42.528Z,20.83
2023-02-11T00:26:12.670Z,21.48
2023-02-11T00:28:40.054Z,20.92
2023-02-11T00:31:07.475Z,20.30
2023-02-11T00:33:36.106Z,20.35
2023-02-11T00:36:04.610Z,20.48
2023-02-11T00:38:33.452Z,19.95
2023-02-11T00:41:00.372Z,19.27
2023-02-11T00:43:27.645Z,21.23
2023-02-11T00:45:54.626Z,20.77
2023-02-11T00:48:21.852Z,20.08
2023-02-11T00:50:50.464Z,19.83
2023-02-11T00:53:17.786Z,20.67
2023-02-11T00:55:44.638Z,20.30
2023-02-11T00:58:11.906Z,20.80
2023-02-11T01:00:39.039Z,20.17
2023-02-11T01:03:06.865Z,21.90
2023-02-11T01:05:34.400Z,21.55
2023-02-11T01:08:03.270Z,21.77
2023-02-11T01:10:30.268Z,24.58
2023-02-11T01:12:57.444Z,23.13
2023-02-11T01:15:24.630Z,22.45
2023-02-11T01:17:52.033Z,22.77
2023-02-11T01:20:22.174Z,23.83
2023-02-11T01:22:49.376Z,22.67
2023-02-11T01:25:17.968Z,24.52
2023-02-11T01:27:45.229Z,22.17
2023-02-11T01:30:13.965Z,22.73
2023-02-11T01:32:41.374Z,20.98
2023-02-11T01:35:08.591Z,22.25
2023-02-11T01:37:36.490Z,20.17
2023-02-11T01:40:05.850Z,20.63
2023-02-11T01:42:34.418Z,21.38
2023-02-11T01:45:22.161Z,21.17
2023-02-11T01:47:49.298Z,22.42
2023-02-11T01:50:16.270Z,20.55
2023-02-11T01:52:46.296Z,22.55
2023-02-11T01:55:32.371Z,22.25
2023-02-11T01:58:05.100Z,20.60
2023-02-11T02:00:36.451Z,23.13
2023-02-11T02:03:09.825Z,21.83
2023-02-11T02:05:40.938Z,22.77
2023-02-11T02:08:15.273Z,23.88
2023-02-11T02:10:45.836Z,23.23
2023-02-11T02:13:15.118Z,24.42
2023-02-11T02:15:49.574Z,24.65
2023-02-11T02:18:31.326Z,25.48
2023-02-11T02:21:28.267Z,23.83
2023-02-11T02:24:18.993Z,25.20
2023-02-11T02:27:18.412Z,24.05
2023-02-11T02:30:09.606Z,24.40
2023-02-11T02:32:49.554Z,27.73
2023-02-11T02:35:29.641Z,27.40
2023-02-11T02:38:06.374Z,25.85
2023-02-11T02:40:41.022Z,26.05
2023-02-11T02:43:10.710Z,26.83
2023-02-11T02:45:38.013Z,25.90
2023-02-11T02:48:07.066Z,25.98
2023-02-11T02:50:36.520Z,24.10
2023-02-11T02:53:18.859Z,24.35
2023-02-11T02:55:59.139Z,26.65
2023-02-11T02:59:03.780Z,24.48
2023-02-11T03:01:40.508Z,22.55
2023-02-11T03:04:16.861Z,24.98
2023-02-11T03:06:52.446Z,23.30
2023-02-11T03:09:24.172Z,25.88
2023-02-11T03:11:51.522Z,22.75
2023-02-11T03:14:20.521Z,26.40
2023-02-11T03:16:50.211Z,25.77
2023-02-11T03:19:22.835Z,23.85
2023-02-11T03:21:52.318Z,22.40
2023-02-11T03:24:24.378Z,22.85
2023-02-11T03:26:54.165Z,20.67
2023-02-11T03:29:32.457Z,20.83
2023-02-11T03:32:04.548Z,20.25
2023-02-11T03:34:41.382Z,21.45
2023-02-11T03:37:13.672Z,19.38
2023-02-11T03:39:46.397Z,17.67
2023-02-11T03:42:15.373Z,20.95
2023-02-11T03:44:50.049Z,19.90
2023-02-11T03:47:21.264Z,20.30
2023-02-11T03:49:52.979Z,19.08
2023-02-11T03:52:22.131Z,17.50
2023-02-11T03:54:54.551Z,18.90
2023-02-11T03:57:21.759Z,17.02
2023-02-11T03:59:54.428Z,18.00
2023-02-11T04:02:23.483Z,17.23
2023-02-11T04:04:52.031Z,18.63
2023-02-11T04:07:19.280Z,19.15
2023-02-11T04:09:46.197Z,17.65
2023-02-11T04:12:13.460Z,18.33
2023-02-11T04:14:40.408Z,17.15
2023-02-11T04:17:07.642Z,21.13
2023-02-11T04:19:34.706Z,19.98
2023-02-11T04:22:03.377Z,17.98
2023-02-11T04:24:30.524Z,18.70
2023-02-11T04:26:57.800Z,20.05
2023-02-11T04:29:24.988Z,19.23
2023-02-11T04:31:52.354Z,18.52
2023-02-11T04:34:19.299Z,18.95
2023-02-11T04:36:46.514Z,19.63
2023-02-11T04:39:14.730Z,20.73
2023-02-11T04:41:42.114Z,18.85
2023-02-11T04:44:09.265Z,19.20
2023-02-11T04:46:36.708Z,16.63
2023-02-11T04:49:04.113Z,17.38
2023-02-11T04:51:31.918Z,18.05
2023-02-11T04:53:59.120Z,21.75
2023-02-11T04:56:27.833Z,17.85
2023-02-11T04:58:54.778Z,20.88
2023-02-11T05:01:22.139Z,19.25
2023-02-11T05:03:49.522Z,20.05
2023-02-11T05:06:16.950Z,18.42
2023-02-11T05:08:43.826Z,19.70
2023-02-11T05:11:16.228Z,16.58
2023-02-11T05:13:44.549Z,19.10
2023-02-11T05:16:12.744Z,17.95
2023-02-11T05:18:40.223Z,19.75
2023-02-11T05:21:08.586Z,18.45
2023-02-11T05:23:36.472Z,18.33
2023-02-11T05:26:04.469Z,16.95
2023-02-11T05:28:31.502Z,18.17
2023-02-11T05:31:02.460Z,19.42
2023-02-11T05:33:29.511Z,20.65
2023-02-11T05:35:58.836Z,19.27
2023-02-11T05:38:26.023Z,20.48
2023-02-11T05:40:53.983Z,19.50
2023-02-11T05:43:20.950Z,21.60
2023-02-11T05:45:48.748Z,21.20
2023-02-11T05:48:17.817Z,20.48
2023-02-11T05:53:12.329Z,17.45
2023-02-11T05:55:39.845Z,17.98
2023-02-11T05:58:07.951Z,19.65
2023-02-11T06:00:35.332Z,19.52
2023-02-11T06:03:04.249Z,18.50
2023-02-11T06:05:34.592Z,18.80
2023-02-11T06:08:01.532Z,17.98
2023-02-11T06:10:28.764Z,17.35
2023-02-11T06:12:55.906Z,11.93
2023-02-11T06:15:23.076Z,18.10
2023-02-11T06:17:50.010Z,18.10
2023-02-11T06:20:17.337Z,16.98
2023-02-11T06:22:45.674Z,18.05
2023-02-11T06:25:13.303Z,16.60
2023-02-11T06:27:40.452Z,15.80
2023-02-11T06:30:09.181Z,18.13
2023-02-11T06:32:44.504Z,17.65
2023-02-11T06:35:13.461Z,14.05
2023-02-11T06:37:41.118Z,17.13
2023-02-11T06:40:10.500Z,17.45
